sensor_id;sensor_type;location;lat;lon;timestamp;P1;durP1;ratioP1;P2;durP2;ratioP2
20619;SDS011;10469;42.720;23.252;2024-02-23T00:01:30;10.48;;;7.05;;
20619;SDS011;10469;42.720;23.252;2024-02-23T00:03:55;11.50;;;7.72;;
20619;SDS011;10469;42.720;23.252;2024-02-23T00:06:21;11.57;;;8.25;;
20619;SDS011;10469;42.720;23.252;2024-02-23T00:08:52;10.32;;;7.63;;
20619;SDS011;10469;42.720;23.252;2024-02-23T00:11:19;13.48;;;8.52;;
20619;SDS011;10469;42.720;23.252;2024-02-23T00:13:45;12.07;;;8.35;;
20619;SDS011;10469;42.720;23.252;2024-02-23T00:16:11;14.20;;;7.15;;
20619;SDS011;10469;42.720;23.252;2024-02-23T00:18:37;11.32;;;8.25;;
20619;SDS011;10469;42.720;23.252;2024-02-23T00:21:03;10.30;;;7.47;;
20619;SDS011;10469;42.720;23.252;2024-02-23T00:23:29;9.50;;;7.32;;
20619;SDS011;10469;42.720;23.252;2024-02-23T00:25:54;12.68;;;8.52;;
20619;SDS011;10469;42.720;23.252;2024-02-23T00:28:20;14.50;;;7.70;;
20619;SDS011;10469;42.720;23.252;2024-02-23T00:30:46;11.30;;;7.32;;
20619;SDS011;10469;42.720;23.252;2024-02-23T00:33:13;11.70;;;7.68;;
20619;SDS011;10469;42.720;23.252;2024-02-23T00:35:38;10.57;;;7.80;;
20619;SDS011;10469;42.720;23.252;2024-02-23T00:38:04;12.23;;;6.82;;
20619;SDS011;10469;42.720;23.252;2024-02-23T00:40:30;11.60;;;9.35;;
20619;SDS011;10469;42.720;23.252;2024-02-23T00:42:55;9.40;;;7.10;;
20619;SDS011;10469;42.720;23.252;2024-02-23T00:45:21;12.18;;;7.32;;
20619;SDS011;10469;42.720;23.252;2024-02-23T00:47:47;10.18;;;7.03;;
20619;SDS011;10469;42.720;23.252;2024-02-23T00:50:13;13.70;;;7.00;;
20619;SDS011;10469;42.720;23.252;2024-02-23T00:52:39;10.93;;;7.65;;
20619;SDS011;10469;42.720;23.252;2024-02-23T00:55:06;10.35;;;7.07;;
20619;SDS011;10469;42.720;23.252;2024-02-23T00:57:33;9.60;;;7.32;;
20619;SDS011;10469;42.720;23.252;2024-02-23T01:00:00;12.48;;;8.07;;
20619;SDS011;10469;42.720;23.252;2024-02-23T01:02:28;10.93;;;7.50;;
20619;SDS011;10469;42.720;23.252;2024-02-23T01:04:54;8.57;;;7.43;;
20619;SDS011;10469;42.720;23.252;2024-02-23T01:07:22;10.98;;;7.60;;
20619;SDS011;10469;42.720;23.252;2024-02-23T01:09:48;10.32;;;7.30;;
20619;SDS011;10469;42.720;23.252;2024-02-23T01:12:13;8.82;;;7.03;;
20619;SDS011;10469;42.720;23.252;2024-02-23T01:14:39;11.30;;;7.32;;
20619;SDS011;10469;42.720;23.252;2024-02-23T01:17:05;14.25;;;8.93;;
20619;SDS011;10469;42.720;23.252;2024-02-23T01:19:30;8.48;;;6.75;;
20619;SDS011;10469;42.720;23.252;2024-02-23T01:21:56;11.80;;;7.88;;
20619;SDS011;10469;42.720;23.252;2024-02-23T01:24:25;9.27;;;6.10;;
20619;SDS011;10469;42.720;23.252;2024-02-23T01:26:53;8.55;;;6.93;;
20619;SDS011;10469;42.720;23.252;2024-02-23T01:29:20;9.13;;;6.95;;
20619;SDS011;10469;42.720;23.252;2024-02-23T01:31:47;10.63;;;6.85;;
20619;SDS011;10469;42.720;23.252;2024-02-23T01:34:14;8.90;;;6.70;;
20619;SDS011;10469;42.720;23.252;2024-02-23T01:36:39;10.00;;;7.47;;
20619;SDS011;10469;42.720;23.252;2024-02-23T01:39:05;10.52;;;7.28;;
20619;SDS011;10469;42.720;23.252;2024-02-23T01:41:32;10.18;;;7.82;;
20619;SDS011;10469;42.720;23.252;2024-02-23T01:43:57;9.95;;;7.70;;
20619;SDS011;10469;42.720;23.252;2024-02-23T01:46:23;9.25;;;6.88;;
20619;SDS011;10469;42.720;23.252;2024-02-23T01:48:49;12.23;;;7.00;;
20619;SDS011;10469;42.720;23.252;2024-02-23T01:51:14;9.25;;;7.25;;
20619;SDS011;10469;42.720;23.252;2024-02-23T01:53:41;9.95;;;7.93;;
20619;SDS011;10469;42.720;23.252;2024-02-23T01:56:06;8.40;;;6.90;;
20619;SDS011;10469;42.720;23.252;2024-02-23T01:58:33;12.02;;;7.47;;
20619;SDS011;10469;42.720;23.252;2024-02-23T02:01:00;11.43;;;7.55;;
20619;SDS011;10469;42.720;23.252;2024-02-23T02:03:26;11.82;;;8.15;;
20619;SDS011;10469;42.720;23.252;2024-02-23T02:05:52;11.38;;;7.60;;
20619;SDS011;10469;42.720;23.252;2024-02-23T02:08:19;10.00;;;7.18;;
20619;SDS011;10469;42.720;23.252;2024-02-23T02:10:45;10.82;;;7.07;;
20619;SDS011;10469;42.720;23.252;2024-02-23T02:13:12;13.15;;;7.45;;
20619;SDS011;10469;42.720;23.252;2024-02-23T02:15:38;9.93;;;7.07;;
20619;SDS011;10469;42.720;23.252;2024-02-23T02:18:04;9.20;;;7.55;;
20619;SDS011;10469;42.720;23.252;2024-02-23T02:20:32;10.77;;;7.90;;
20619;SDS011;10469;42.720;23.252;2024-02-23T02:22:58;11.93;;;7.97;;
20619;SDS011;10469;42.720;23.252;2024-02-23T02:25:24;17.15;;;11.05;;
20619;SDS011;10469;42.720;23.252;2024-02-23T02:27:49;16.42;;;9.32;;
20619;SDS011;10469;42.720;23.252;2024-02-23T02:30:15;13.93;;;9.70;;
20619;SDS011;10469;42.720;23.252;2024-02-23T02:32:41;13.55;;;9.38;;
20619;SDS011;10469;42.720;23.252;2024-02-23T02:35:07;13.45;;;9.27;;
20619;SDS011;10469;42.720;23.252;2024-02-23T02:37:33;14.38;;;9.98;;
20619;SDS011;10469;42.720;23.252;2024-02-23T02:39:58;13.98;;;9.15;;
20619;SDS011;10469;42.720;23.252;2024-02-23T02:42:24;14.23;;;9.57;;
20619;SDS011;10469;42.720;23.252;2024-02-23T02:44:49;15.05;;;9.80;;
20619;SDS011;10469;42.720;23.252;2024-02-23T02:47:15;15.93;;;8.70;;
20619;SDS011;10469;42.720;23.252;2024-02-23T02:49:40;13.77;;;9.48;;
20619;SDS011;10469;42.720;23.252;2024-02-23T02:52:06;13.45;;;8.90;;
20619;SDS011;10469;42.720;23.252;2024-02-23T02:54:33;15.23;;;9.27;;
20619;SDS011;10469;42.720;23.252;2024-02-23T02:56:59;12.93;;;10.18;;
20619;SDS011;10469;42.720;23.252;2024-02-23T02:59:24;13.20;;;9.63;;
20619;SDS011;10469;42.720;23.252;2024-02-23T03:01:50;14.68;;;10.95;;
20619;SDS011;10469;42.720;23.252;2024-02-23T03:04:15;11.90;;;8.18;;
20619;SDS011;10469;42.720;23.252;2024-02-23T03:06:41;12.32;;;9.07;;
20619;SDS011;10469;42.720;23.252;2024-02-23T03:09:07;13.95;;;9.82;;
20619;SDS011;10469;42.720;23.252;2024-02-23T03:11:32;15.32;;;10.15;;
20619;SDS011;10469;42.720;23.252;2024-02-23T03:13:58;13.35;;;9.00;;
20619;SDS011;10469;42.720;23.252;2024-02-23T03:16:24;10.88;;;8.98;;
20619;SDS011;10469;42.720;23.252;2024-02-23T03:18:54;11.68;;;9.18;;
20619;SDS011;10469;42.720;23.252;2024-02-23T03:21:19;12.90;;;8.27;;
20619;SDS011;10469;42.720;23.252;2024-02-23T03:23:45;11.20;;;8.75;;
20619;SDS011;10469;42.720;23.252;2024-02-23T03:26:11;14.10;;;9.02;;
20619;SDS011;10469;42.720;23.252;2024-02-23T03:28:36;12.45;;;9.07;;
20619;SDS011;10469;42.720;23.252;2024-02-23T03:31:02;16.52;;;9.70;;
20619;SDS011;10469;42.720;23.252;2024-02-23T03:33:28;14.10;;;8.90;;
20619;SDS011;10469;42.720;23.252;2024-02-23T03:35:53;16.55;;;9.77;;
20619;SDS011;10469;42.720;23.252;2024-02-23T03:38:20;13.10;;;9.38;;
20619;SDS011;10469;42.720;23.252;2024-02-23T03:40:46;15.55;;;10.13;;
20619;SDS011;10469;42.720;23.252;2024-02-23T03:43:11;12.80;;;10.40;;
20619;SDS011;10469;42.720;23.252;2024-02-23T03:45:37;14.10;;;10.60;;
20619;SDS011;10469;42.720;23.252;2024-02-23T03:48:03;12.88;;;10.27;;
20619;SDS011;10469;42.720;23.252;2024-02-23T03:50:29;14.25;;;10.70;;
20619;SDS011;10469;42.720;23.252;2024-02-23T03:52:55;19.10;;;10.20;;
20619;SDS011;10469;42.720;23.252;2024-02-23T03:55:21;11.63;;;9.20;;
20619;SDS011;10469;42.720;23.252;2024-02-23T03:57:48;11.20;;;8.45;;
20619;SDS011;10469;42.720;23.252;2024-02-23T04:00:14;14.82;;;9.18;;
20619;SDS011;10469;42.720;23.252;2024-02-23T04:02:40;12.70;;;9.40;;
20619;SDS011;10469;42.720;23.252;2024-02-23T04:05:06;11.25;;;7.85;;
20619;SDS011;10469;42.720;23.252;2024-02-23T04:07:32;11.82;;;8.63;;
20619;SDS011;10469;42.720;23.252;2024-02-23T04:09:57;12.55;;;8.77;;
20619;SDS011;10469;42.720;23.252;2024-02-23T04:12:23;16.30;;;9.65;;
20619;SDS011;10469;42.720;23.252;2024-02-23T04:14:49;13.02;;;8.52;;
20619;SDS011;10469;42.720;23.252;2024-02-23T04:17:15;9.32;;;7.63;;
20619;SDS011;10469;42.720;23.252;2024-02-23T04:19:42;12.35;;;7.93;;
20619;SDS011;10469;42.720;23.252;2024-02-23T04:22:08;13.85;;;9.23;;
20619;SDS011;10469;42.720;23.252;2024-02-23T04:24:38;11.57;;;8.80;;
20619;SDS011;10469;42.720;23.252;2024-02-23T04:27:05;12.77;;;8.73;;
20619;SDS011;10469;42.720;23.252;2024-02-23T04:29:31;13.40;;;8.23;;
20619;SDS011;10469;42.720;23.252;2024-02-23T04:31:57;13.35;;;9.13;;
20619;SDS011;10469;42.720;23.252;2024-02-23T04:34:23;11.63;;;8.60;;
20619;SDS011;10469;42.720;23.252;2024-02-23T04:36:49;14.60;;;9.57;;
20619;SDS011;10469;42.720;23.252;2024-02-23T04:39:14;13.50;;;8.88;;
20619;SDS011;10469;42.720;23.252;2024-02-23T04:41:40;21.52;;;11.00;;
20619;SDS011;10469;42.720;23.252;2024-02-23T04:44:05;14.27;;;10.45;;
20619;SDS011;10469;42.720;23.252;2024-02-23T04:46:31;19.85;;;10.70;;
20619;SDS011;10469;42.720;23.252;2024-02-23T04:48:59;14.13;;;10.85;;
20619;SDS011;10469;42.720;23.252;2024-02-23T04:51:25;15.82;;;10.77;;
20619;SDS011;10469;42.720;23.252;2024-02-23T04:53:50;19.05;;;11.88;;
20619;SDS011;10469;42.720;23.252;2024-02-23T04:56:16;14.50;;;10.15;;
20619;SDS011;10469;42.720;23.252;2024-02-23T04:58:43;15.95;;;11.18;;
20619;SDS011;10469;42.720;23.252;2024-02-23T05:01:09;18.33;;;11.75;;
20619;SDS011;10469;42.720;23.252;2024-02-23T05:03:36;23.25;;;11.98;;
20619;SDS011;10469;42.720;23.252;2024-02-23T05:06:02;18.30;;;11.05;;
20619;SDS011;10469;42.720;23.252;2024-02-23T05:08:28;15.77;;;10.90;;
20619;SDS011;10469;42.720;23.252;2024-02-23T05:10:55;21.98;;;12.00;;
20619;SDS011;10469;42.720;23.252;2024-02-23T05:13:21;16.85;;;12.07;;
20619;SDS011;10469;42.720;23.252;2024-02-23T05:15:47;18.88;;;11.98;;
20619;SDS011;10469;42.720;23.252;2024-02-23T05:18:13;17.98;;;11.50;;
20619;SDS011;10469;42.720;23.252;2024-02-23T05:20:39;22.23;;;11.48;;
20619;SDS011;10469;42.720;23.252;2024-02-23T05:23:04;20.02;;;12.13;;
20619;SDS011;10469;42.720;23.252;2024-02-23T05:25:30;19.33;;;12.77;;
20619;SDS011;10469;42.720;23.252;2024-02-23T05:27:55;15.60;;;11.10;;
20619;SDS011;10469;42.720;23.252;2024-02-23T05:30:21;17.77;;;11.90;;
20619;SDS011;10469;42.720;23.252;2024-02-23T05:32:47;20.75;;;12.23;;
20619;SDS011;10469;42.720;23.252;2024-02-23T05:35:13;15.93;;;10.68;;
20619;SDS011;10469;42.720;23.252;2024-02-23T05:37:40;18.05;;;11.15;;
20619;SDS011;10469;42.720;23.252;2024-02-23T05:40:06;18.25;;;10.20;;
20619;SDS011;10469;42.720;23.252;2024-02-23T05:42:35;16.17;;;10.15;;
20619;SDS011;10469;42.720;23.252;2024-02-23T05:45:01;14.52;;;10.48;;
20619;SDS011;10469;42.720;23.252;2024-02-23T05:47:29;15.05;;;10.50;;
20619;SDS011;10469;42.720;23.252;2024-02-23T05:49:55;16.65;;;11.20;;
20619;SDS011;10469;42.720;23.252;2024-02-23T05:52:21;15.98;;;11.05;;
20619;SDS011;10469;42.720;23.252;2024-02-23T05:54:47;14.93;;;11.02;;
20619;SDS011;10469;42.720;23.252;2024-02-23T05:57:12;16.83;;;10.90;;
20619;SDS011;10469;42.720;23.252;2024-02-23T05:59:38;14.80;;;10.40;;
20619;SDS011;10469;42.720;23.252;2024-02-23T06:02:03;15.38;;;12.18;;
20619;SDS011;10469;42.720;23.252;2024-02-23T06:04:29;17.65;;;12.07;;
20619;SDS011;10469;42.720;23.252;2024-02-23T06:06:54;17.00;;;12.68;;
20619;SDS011;10469;42.720;23.252;2024-02-23T06:09:20;23.23;;;13.80;;
20619;SDS011;10469;42.720;23.252;2024-02-23T06:11:46;23.33;;;14.00;;
20619;SDS011;10469;42.720;23.252;2024-02-23T06:14:11;19.77;;;14.88;;
20619;SDS011;10469;42.720;23.252;2024-02-23T06:16:37;23.02;;;13.75;;
20619;SDS011;10469;42.720;23.252;2024-02-23T06:19:02;16.70;;;12.70;;
20619;SDS011;10469;42.720;23.252;2024-02-23T06:21:28;18.77;;;12.60;;
20619;SDS011;10469;42.720;23.252;2024-02-23T06:23:54;19.92;;;12.75;;
20619;SDS011;10469;42.720;23.252;2024-02-23T06:26:20;17.00;;;12.18;;
20619;SDS011;10469;42.720;23.252;2024-02-23T06:28:46;17.75;;;12.90;;
20619;SDS011;10469;42.720;23.252;2024-02-23T06:31:12;15.68;;;12.20;;
20619;SDS011;10469;42.720;23.252;2024-02-23T11:14:08;5.18;;;2.60;;
20619;SDS011;10469;42.720;23.252;2024-02-23T11:16:38;7.53;;;2.60;;
20619;SDS011;10469;42.720;23.252;2024-02-23T11:19:09;5.43;;;2.70;;
20619;SDS011;10469;42.720;23.252;2024-02-23T11:21:36;4.25;;;2.80;;
20619;SDS011;10469;42.720;23.252;2024-02-23T11:24:03;4.53;;;2.58;;
20619;SDS011;10469;42.720;23.252;2024-02-23T11:26:30;4.13;;;2.42;;
20619;SDS011;10469;42.720;23.252;2024-02-23T11:28:59;3.38;;;2.63;;
20619;SDS011;10469;42.720;23.252;2024-02-23T11:31:35;4.05;;;2.47;;
20619;SDS011;10469;42.720;23.252;2024-02-23T11:34:00;5.13;;;2.13;;
20619;SDS011;10469;42.720;23.252;2024-02-23T11:38:56;3.42;;;2.70;;
20619;SDS011;10469;42.720;23.252;2024-02-23T11:41:23;2.88;;;2.40;;
20619;SDS011;10469;42.720;23.252;2024-02-23T11:43:49;2.63;;;2.08;;
20619;SDS011;10469;42.720;23.252;2024-02-23T11:46:17;5.35;;;2.10;;
20619;SDS011;10469;42.720;23.252;2024-02-23T11:48:44;8.15;;;2.53;;
20619;SDS011;10469;42.720;23.252;2024-02-23T11:51:11;3.47;;;2.28;;
20619;SDS011;10469;42.720;23.252;2024-02-23T11:53:38;6.63;;;2.60;;
20619;SDS011;10469;42.720;23.252;2024-02-23T11:56:04;4.95;;;2.60;;
20619;SDS011;10469;42.720;23.252;2024-02-23T11:58:31;4.40;;;2.17;;
20619;SDS011;10469;42.720;23.252;2024-02-23T12:00:57;5.68;;;2.30;;
20619;SDS011;10469;42.720;23.252;2024-02-23T12:03:25;2.50;;;2.30;;
20619;SDS011;10469;42.720;23.252;2024-02-23T12:05:51;3.78;;;2.38;;
20619;SDS011;10469;42.720;23.252;2024-02-23T12:08:17;3.20;;;2.75;;
20619;SDS011;10469;42.720;23.252;2024-02-23T12:10:43;2.95;;;2.10;;
20619;SDS011;10469;42.720;23.252;2024-02-23T12:13:09;2.20;;;2.00;;
20619;SDS011;10469;42.720;23.252;2024-02-23T12:15:35;4.10;;;2.33;;
20619;SDS011;10469;42.720;23.252;2024-02-23T12:18:00;6.43;;;2.35;;
20619;SDS011;10469;42.720;23.252;2024-02-23T12:20:28;6.07;;;2.22;;
20619;SDS011;10469;42.720;23.252;2024-02-23T12:22:58;4.57;;;2.50;;
20619;SDS011;10469;42.720;23.252;2024-02-23T12:25:25;3.00;;;2.10;;
20619;SDS011;10469;42.720;23.252;2024-02-23T12:27:57;6.00;;;2.40;;
20619;SDS011;10469;42.720;23.252;2024-02-23T12:30:23;2.70;;;2.20;;
20619;SDS011;10469;42.720;23.252;2024-02-23T12:32:48;2.88;;;2.47;;
20619;SDS011;10469;42.720;23.252;2024-02-23T12:35:14;2.42;;;2.13;;
20619;SDS011;10469;42.720;23.252;2024-02-23T12:37:41;3.35;;;2.38;;
20619;SDS011;10469;42.720;23.252;2024-02-23T12:40:08;2.40;;;2.20;;
20619;SDS011;10469;42.720;23.252;2024-02-23T12:42:34;4.05;;;2.33;;
20619;SDS011;10469;42.720;23.252;2024-02-23T12:45:00;2.38;;;2.17;;
20619;SDS011;10469;42.720;23.252;2024-02-23T12:47:26;3.83;;;2.13;;
20619;SDS011;10469;42.720;23.252;2024-02-23T12:49:51;3.65;;;2.42;;
20619;SDS011;10469;42.720;23.252;2024-02-23T12:52:16;3.72;;;2.25;;
20619;SDS011;10469;42.720;23.252;2024-02-23T12:54:42;2.45;;;2.00;;
20619;SDS011;10469;42.720;23.252;2024-02-23T12:57:07;2.92;;;1.98;;
20619;SDS011;10469;42.720;23.252;2024-02-23T12:59:33;4.93;;;2.10;;
20619;SDS011;10469;42.720;23.252;2024-02-23T13:01:59;5.13;;;2.10;;
20619;SDS011;10469;42.720;23.252;2024-02-23T13:04:24;2.92;;;2.10;;
20619;SDS011;10469;42.720;23.252;2024-02-23T13:06:50;2.00;;;1.80;;
20619;SDS011;10469;42.720;23.252;2024-02-23T13:09:15;1.70;;;1.60;;
20619;SDS011;10469;42.720;23.252;2024-02-23T13:11:41;2.03;;;1.80;;
20619;SDS011;10469;42.720;23.252;2024-02-23T13:14:07;5.00;;;2.38;;
20619;SDS011;10469;42.720;23.252;2024-02-23T13:16:34;4.05;;;2.38;;
20619;SDS011;10469;42.720;23.252;2024-02-23T13:19:00;4.30;;;2.40;;
20619;SDS011;10469;42.720;23.252;2024-02-23T13:21:25;2.80;;;2.58;;
20619;SDS011;10469;42.720;23.252;2024-02-23T13:23:50;2.72;;;2.42;;
20619;SDS011;10469;42.720;23.252;2024-02-23T13:26:16;2.67;;;2.42;;
20619;SDS011;10469;42.720;23.252;2024-02-23T13:28:42;2.35;;;2.15;;
20619;SDS011;10469;42.720;23.252;2024-02-23T13:31:08;2.97;;;2.17;;
20619;SDS011;10469;42.720;23.252;2024-02-23T13:33:34;2.95;;;2.35;;
20619;SDS011;10469;42.720;23.252;2024-02-23T13:36:00;10.30;;;3.47;;
20619;SDS011;10469;42.720;23.252;2024-02-23T13:38:25;4.10;;;2.20;;
20619;SDS011;10469;42.720;23.252;2024-02-23T13:40:51;3.92;;;2.40;;
20619;SDS011;10469;42.720;23.252;2024-02-23T13:43:16;2.80;;;2.30;;
20619;SDS011;10469;42.720;23.252;2024-02-23T13:45:49;5.40;;;2.10;;
20619;SDS011;10469;42.720;23.252;2024-02-23T13:48:16;5.30;;;2.50;;
20619;SDS011;10469;42.720;23.252;2024-02-23T13:50:43;4.93;;;2.80;;
20619;SDS011;10469;42.720;23.252;2024-02-23T13:53:10;3.78;;;2.42;;
20619;SDS011;10469;42.720;23.252;2024-02-23T13:55:37;6.28;;;2.08;;
20619;SDS011;10469;42.720;23.252;2024-02-23T13:58:03;4.70;;;2.30;;
20619;SDS011;10469;42.720;23.252;2024-02-23T14:00:28;4.38;;;2.30;;
20619;SDS011;10469;42.720;23.252;2024-02-23T14:02:54;2.85;;;2.42;;
20619;SDS011;10469;42.720;23.252;2024-02-23T14:05:19;4.30;;;2.40;;
20619;SDS011;10469;42.720;23.252;2024-02-23T14:07:46;4.20;;;2.83;;
20619;SDS011;10469;42.720;23.252;2024-02-23T14:10:12;5.35;;;2.60;;
20619;SDS011;10469;42.720;23.252;2024-02-23T14:12:38;5.82;;;2.30;;
20619;SDS011;10469;42.720;23.252;2024-02-23T14:15:04;10.30;;;2.78;;
20619;SDS011;10469;42.720;23.252;2024-02-23T14:17:30;2.53;;;2.22;;
20619;SDS011;10469;42.720;23.252;2024-02-23T14:19:56;6.50;;;2.60;;
20619;SDS011;10469;42.720;23.252;2024-02-23T14:22:21;5.63;;;2.55;;
20619;SDS011;10469;42.720;23.252;2024-02-23T14:24:47;5.03;;;2.50;;
20619;SDS011;10469;42.720;23.252;2024-02-23T14:27:12;4.65;;;2.67;;
20619;SDS011;10469;42.720;23.252;2024-02-23T14:29:38;2.60;;;2.40;;
20619;SDS011;10469;42.720;23.252;2024-02-23T14:32:04;4.80;;;2.20;;
20619;SDS011;10469;42.720;23.252;2024-02-23T14:34:30;3.85;;;2.80;;
20619;SDS011;10469;42.720;23.252;2024-02-23T14:36:58;3.85;;;2.75;;
20619;SDS011;10469;42.720;23.252;2024-02-23T14:39:23;3.20;;;2.58;;
20619;SDS011;10469;42.720;23.252;2024-02-23T14:41:49;3.60;;;2.50;;
20619;SDS011;10469;42.720;23.252;2024-02-23T14:44:14;4.50;;;2.60;;
20619;SDS011;10469;42.720;23.252;2024-02-23T14:46:40;4.10;;;2.60;;
20619;SDS011;10469;42.720;23.252;2024-02-23T14:49:06;3.63;;;2.75;;
20619;SDS011;10469;42.720;23.252;2024-02-23T14:51:32;8.68;;;3.13;;
20619;SDS011;10469;42.720;23.252;2024-02-23T14:53:59;3.30;;;2.63;;
20619;SDS011;10469;42.720;23.252;2024-02-23T14:56:27;13.07;;;2.67;;
20619;SDS011;10469;42.720;23.252;2024-02-23T14:58:52;3.83;;;2.90;;
20619;SDS011;10469;42.720;23.252;2024-02-23T15:01:18;3.75;;;2.60;;
20619;SDS011;10469;42.720;23.252;2024-02-23T15:03:43;6.38;;;2.53;;
20619;SDS011;10469;42.720;23.252;2024-02-23T15:06:09;3.53;;;3.03;;
20619;SDS011;10469;42.720;23.252;2024-02-23T15:08:35;2.72;;;2.50;;
20619;SDS011;10469;42.720;23.252;2024-02-23T15:11:02;4.32;;;2.72;;
20619;SDS011;10469;42.720;23.252;2024-02-23T15:13:30;5.13;;;3.38;;
20619;SDS011;10469;42.720;23.252;2024-02-23T15:15:56;5.90;;;3.30;;
20619;SDS011;10469;42.720;23.252;2024-02-23T15:18:21;3.47;;;3.00;;
20619;SDS011;10469;42.720;23.252;2024-02-23T15:20:47;7.57;;;4.28;;
20619;SDS011;10469;42.720;23.252;2024-02-23T15:23:13;6.28;;;3.30;;
20619;SDS011;10469;42.720;23.252;2024-02-23T15:25:38;5.35;;;3.47;;
20619;SDS011;10469;42.720;23.252;2024-02-23T15:28:04;5.85;;;2.95;;
20619;SDS011;10469;42.720;23.252;2024-02-23T15:30:29;6.85;;;3.58;;
20619;SDS011;10469;42.720;23.252;2024-02-23T15:32:56;3.47;;;3.08;;
20619;SDS011;10469;42.720;23.252;2024-02-23T15:35:22;5.20;;;3.63;;
20619;SDS011;10469;42.720;23.252;2024-02-23T15:37:51;5.82;;;3.28;;
20619;SDS011;10469;42.720;23.252;2024-02-23T15:40:16;3.20;;;2.90;;
20619;SDS011;10469;42.720;23.252;2024-02-23T15:42:42;3.42;;;3.00;;
20619;SDS011;10469;42.720;23.252;2024-02-23T15:45:08;5.68;;;3.60;;
20619;SDS011;10469;42.720;23.252;2024-02-23T15:47:33;3.63;;;3.33;;
20619;SDS011;10469;42.720;23.252;2024-02-23T15:49:59;6.05;;;3.88;;
20619;SDS011;10469;42.720;23.252;2024-02-23T15:52:25;7.30;;;3.88;;
20619;SDS011;10469;42.720;23.252;2024-02-23T15:54:51;4.95;;;3.88;;
20619;SDS011;10469;42.720;23.252;2024-02-23T15:57:17;4.22;;;3.70;;
20619;SDS011;10469;42.720;23.252;2024-02-23T15:59:43;4.70;;;3.85;;
20619;SDS011;10469;42.720;23.252;2024-02-23T16:02:08;7.20;;;3.58;;
20619;SDS011;10469;42.720;23.252;2024-02-23T16:04:34;4.75;;;3.67;;
20619;SDS011;10469;42.720;23.252;2024-02-23T16:06:59;7.63;;;3.88;;
20619;SDS011;10469;42.720;23.252;2024-02-23T16:09:25;5.95;;;4.25;;
20619;SDS011;10469;42.720;23.252;2024-02-23T16:11:50;5.85;;;4.70;;
20619;SDS011;10469;42.720;23.252;2024-02-23T16:14:16;6.90;;;3.95;;
20619;SDS011;10469;42.720;23.252;2024-02-23T16:16:42;6.03;;;4.10;;
20619;SDS011;10469;42.720;23.252;2024-02-23T16:19:08;4.38;;;3.88;;
20619;SDS011;10469;42.720;23.252;2024-02-23T16:21:37;5.30;;;4.10;;
20619;SDS011;10469;42.720;23.252;2024-02-23T16:24:04;4.93;;;4.05;;
20619;SDS011;10469;42.720;23.252;2024-02-23T16:26:30;4.28;;;3.88;;
20619;SDS011;10469;42.720;23.252;2024-02-23T16:29:00;5.82;;;4.60;;
20619;SDS011;10469;42.720;23.252;2024-02-23T16:31:26;16.92;;;4.22;;
20619;SDS011;10469;42.720;23.252;2024-02-23T16:33:51;9.55;;;4.10;;
20619;SDS011;10469;42.720;23.252;2024-02-23T16:36:17;5.63;;;4.20;;
20619;SDS011;10469;42.720;23.252;2024-02-23T16:38:43;3.67;;;3.38;;
20619;SDS011;10469;42.720;23.252;2024-02-23T16:41:08;4.68;;;3.92;;
20619;SDS011;10469;42.720;23.252;2024-02-23T16:43:34;7.25;;;4.65;;
20619;SDS011;10469;42.720;23.252;2024-02-23T16:45:59;4.50;;;4.10;;
20619;SDS011;10469;42.720;23.252;2024-02-23T16:48:25;7.63;;;3.63;;
20619;SDS011;10469;42.720;23.252;2024-02-23T16:50:50;5.35;;;4.63;;
20619;SDS011;10469;42.720;23.252;2024-02-23T16:53:16;4.50;;;4.05;;
20619;SDS011;10469;42.720;23.252;2024-02-23T16:55:42;5.28;;;4.13;;
20619;SDS011;10469;42.720;23.252;2024-02-23T16:58:09;4.35;;;3.83;;
20619;SDS011;10469;42.720;23.252;2024-02-23T17:00:34;4.75;;;3.83;;
20619;SDS011;10469;42.720;23.252;2024-02-23T17:03:00;5.80;;;4.63;;
20619;SDS011;10469;42.720;23.252;2024-02-23T17:05:26;10.35;;;4.60;;
20619;SDS011;10469;42.720;23.252;2024-02-23T17:07:58;5.63;;;4.22;;
20619;SDS011;10469;42.720;23.252;2024-02-23T17:10:23;6.53;;;4.68;;
20619;SDS011;10469;42.720;23.252;2024-02-23T20:15:43;4.45;;;3.42;;
20619;SDS011;10469;42.720;23.252;2024-02-23T20:18:10;5.07;;;3.78;;
20619;SDS011;10469;42.720;23.252;2024-02-23T20:20:37;4.43;;;3.75;;
20619;SDS011;10469;42.720;23.252;2024-02-23T20:23:04;5.07;;;3.88;;
20619;SDS011;10469;42.720;23.252;2024-02-23T20:25:29;4.38;;;3.60;;
20619;SDS011;10469;42.720;23.252;2024-02-23T20:27:55;4.75;;;4.20;;
20619;SDS011;10469;42.720;23.252;2024-02-23T20:30:20;4.47;;;3.92;;
20619;SDS011;10469;42.720;23.252;2024-02-23T20:32:46;6.95;;;3.50;;
20619;SDS011;10469;42.720;23.252;2024-02-23T20:35:11;3.85;;;3.40;;
20619;SDS011;10469;42.720;23.252;2024-02-23T20:37:37;4.43;;;3.00;;
20619;SDS011;10469;42.720;23.252;2024-02-23T20:40:03;4.90;;;3.92;;
20619;SDS011;10469;42.720;23.252;2024-02-23T20:42:30;4.43;;;3.95;;
20619;SDS011;10469;42.720;23.252;2024-02-23T20:44:56;4.13;;;3.50;;
20619;SDS011;10469;42.720;23.252;2024-02-23T20:47:22;3.45;;;3.15;;
20619;SDS011;10469;42.720;23.252;2024-02-23T20:49:48;2.35;;;2.15;;
20619;SDS011;10469;42.720;23.252;2024-02-23T20:52:14;3.50;;;2.60;;
20619;SDS011;10469;42.720;23.252;2024-02-23T20:54:42;3.35;;;2.80;;
20619;SDS011;10469;42.720;23.252;2024-02-23T20:57:12;3.83;;;3.10;;
20619;SDS011;10469;42.720;23.252;2024-02-23T20:59:38;3.28;;;2.60;;
20619;SDS011;10469;42.720;23.252;2024-02-23T21:02:03;3.33;;;2.97;;
20619;SDS011;10469;42.720;23.252;2024-02-23T21:04:29;4.15;;;3.50;;
20619;SDS011;10469;42.720;23.252;2024-02-23T21:06:54;4.43;;;3.40;;
20619;SDS011;10469;42.720;23.252;2024-02-23T21:09:22;5.10;;;3.42;;
20619;SDS011;10469;42.720;23.252;2024-02-23T21:11:48;4.82;;;3.83;;
20619;SDS011;10469;42.720;23.252;2024-02-23T21:14:13;5.30;;;4.13;;
20619;SDS011;10469;42.720;23.252;2024-02-23T21:16:39;3.88;;;3.47;;
20619;SDS011;10469;42.720;23.252;2024-02-23T21:19:05;4.10;;;3.25;;
20619;SDS011;10469;42.720;23.252;2024-02-23T21:21:31;3.95;;;3.40;;
20619;SDS011;10469;42.720;23.252;2024-02-23T21:23:56;3.90;;;3.50;;
20619;SDS011;10469;42.720;23.252;2024-02-23T21:26:23;4.43;;;3.83;;
20619;SDS011;10469;42.720;23.252;2024-02-23T21:28:48;8.95;;;3.65;;
20619;SDS011;10469;42.720;23.252;2024-02-23T21:31:14;9.32;;;4.57;;
20619;SDS011;10469;42.720;23.252;2024-02-23T21:33:39;5.10;;;3.60;;
20619;SDS011;10469;42.720;23.252;2024-02-23T21:36:05;6.03;;;4.32;;
20619;SDS011;10469;42.720;23.252;2024-02-23T21:38:31;6.30;;;4.20;;
20619;SDS011;10469;42.720;23.252;2024-02-23T21:40:56;6.43;;;4.05;;
20619;SDS011;10469;42.720;23.252;2024-02-23T21:43:23;5.35;;;3.92;;
20619;SDS011;10469;42.720;23.252;2024-02-23T21:45:49;4.97;;;3.92;;
20619;SDS011;10469;42.720;23.252;2024-02-23T21:48:14;6.38;;;3.88;;
20619;SDS011;10469;42.720;23.252;2024-02-23T21:50:40;4.32;;;3.70;;
20619;SDS011;10469;42.720;23.252;2024-02-23T21:53:05;6.07;;;4.20;;
20619;SDS011;10469;42.720;23.252;2024-02-23T21:55:31;8.05;;;4.35;;
20619;SDS011;10469;42.720;23.252;2024-02-23T21:57:57;6.25;;;4.15;;
20619;SDS011;10469;42.720;23.252;2024-02-23T22:00:23;7.45;;;4.10;;
20619;SDS011;10469;42.720;23.252;2024-02-23T22:02:49;6.55;;;4.20;;
20619;SDS011;10469;42.720;23.252;2024-02-23T22:05:15;6.38;;;3.75;;